Time;durP1;ratioP1;P1;durP2;ratioP2;P2;SDS_P1;SDS_P2;PMS_P1;PMS_P2;Temp;Humidity;BMP_temperature;BMP_pressure;BME280_temperature;BME280_humidity;BME280_pressure;Samples;Min_cycle;Max_cycle;Signal;HPM_P1;HPM_P2
2023/06/09 00:01:46;;;;;;;14.57;8.17;;;21.10;1.00;;;;;;5064855;28;20177;-81
2023/06/09 00:04:29;;;;;;;12.07;8.30;;;21.00;1.00;;;;;;5062697;28;20292;-83
2023/06/09 00:07:02;;;;;;;10.90;8.43;;;21.00;1.00;;;;;;5056528;28;20174;-79
2023/06/09 00:09:31;;;;;;;10.73;8.37;;;21.00;1.00;;;;;;5056696;28;20157;-83
2023/06/09 00:11:58;;;;;;;11.47;8.30;;;20.90;1.00;;;;;;5057045;28;20165;-81
2023/06/09 00:14:23;;;;;;;15.07;8.30;;;20.90;1.00;;;;;;5055918;28;20223;-85
2023/06/09 00:16:49;;;;;;;12.07;8.73;;;20.90;1.00;;;;;;5056071;28;20178;-80
2023/06/09 00:19:16;;;;;;;12.77;8.70;;;20.80;1.00;;;;;;5055347;28;20649;-81
2023/06/09 00:21:49;;;;;;;10.93;7.70;;;20.80;1.00;;;;;;5055447;28;20658;-84
2023/06/09 00:24:20;;;;;;;14.80;8.63;;;20.90;1.00;;;;;;5037483;28;20295;-80
2023/06/09 00:26:47;;;;;;;11.47;8.30;;;20.80;1.00;;;;;;5055587;28;20165;-80
2023/06/09 00:29:13;;;;;;;15.90;8.17;;;20.80;1.00;;;;;;5055399;28;20169;-85
2023/06/09 00:31:40;;;;;;;13.03;8.70;;;20.80;1.00;;;;;;5037787;28;20171;-82
2023/06/09 00:34:06;;;;;;;15.47;8.33;;;20.80;1.00;;;;;;5054897;28;20176;-82
2023/06/09 00:36:31;;;;;;;11.27;8.73;;;20.70;1.00;;;;;;5037085;28;20172;-82
2023/06/09 00:38:57;;;;;;;9.23;7.80;;;20.60;1.00;;;;;;5055305;28;20248;-82
2023/06/09 00:41:23;;;;;;;10.63;8.10;;;20.60;1.00;;;;;;5055372;28;20531;-79
2023/06/09 00:43:48;;;;;;;10.73;8.10;;;20.50;1.00;;;;;;5053300;28;20211;-81
2023/06/09 00:46:15;;;;;;;10.20;8.33;;;20.50;1.00;;;;;;5055381;28;20166;-79
2023/06/09 00:48:40;;;;;;;11.20;8.67;;;20.60;1.00;;;;;;5058814;28;20170;-83
2023/06/09 00:51:18;;;;;;;12.40;7.77;;;20.50;1.00;;;;;;5059136;28;20169;-82
2023/06/09 00:53:44;;;;;;;15.70;8.33;;;20.50;1.00;;;;;;5058772;28;20200;-81
2023/06/09 00:56:09;;;;;;;12.57;8.03;;;20.50;1.00;;;;;;5058826;28;20165;-82
2023/06/09 00:58:35;;;;;;;11.23;8.30;;;20.50;1.00;;;;;;5058179;28;20196;-84
2023/06/09 01:01:02;;;;;;;10.97;7.83;;;20.50;1.00;;;;;;5038670;28;20174;-80
2023/06/09 01:03:28;;;;;;;10.37;8.03;;;20.40;1.00;;;;;;5069996;28;20225;-84
2023/06/09 01:06:26;;;;;;;13.40;7.97;;;20.40;1.00;;;;;;5055016;28;20176;-81
2023/06/09 01:09:02;;;;;;;19.03;8.27;;;20.30;1.00;;;;;;5056203;28;20169;-84
2023/06/09 01:12:09;;;;;;;11.00;7.80;;;20.30;1.00;;;;;;5055520;28;20259;-85
2023/06/09 01:15:00;;;;;;;10.87;7.73;;;20.30;1.00;;;;;;5015037;28;20185;-80
2023/06/09 01:17:28;;;;;;;11.10;8.23;;;20.20;1.00;;;;;;5054885;28;20172;-83
2023/06/09 01:20:04;;;;;;;12.77;7.67;;;20.10;1.00;;;;;;5054693;28;20191;-86
2023/06/09 01:22:50;;;;;;;12.67;7.73;;;20.00;1.00;;;;;;5054627;28;20192;-86
2023/06/09 01:25:37;;;;;;;10.00;7.80;;;19.90;1.00;;;;;;5054729;28;20164;-83
2023/06/09 01:28:20;;;;;;;11.60;8.10;;;19.90;1.00;;;;;;5055142;28;20534;-85
2023/06/09 01:30:48;;;;;;;12.20;8.20;;;19.90;1.00;;;;;;5055310;28;20180;-80
2023/06/09 01:33:20;;;;;;;11.73;7.87;;;19.90;1.00;;;;;;5055383;28;20513;-84
2023/06/09 01:35:47;;;;;;;11.53;8.23;;;19.90;1.00;;;;;;5054617;28;20530;-82
2023/06/09 01:38:14;;;;;;;13.77;8.80;;;19.90;1.00;;;;;;5054816;28;20178;-85
2023/06/09 01:40:42;;;;;;;12.47;8.03;;;19.90;1.00;;;;;;5054590;28;20693;-83
2023/06/09 01:43:07;;;;;;;10.97;8.10;;;19.80;1.00;;;;;;5054305;28;20200;-81
2023/06/09 01:45:33;;;;;;;11.63;8.57;;;19.80;1.00;;;;;;5054152;28;20165;-83
2023/06/09 01:48:20;;;;;;;11.10;8.60;;;19.80;1.00;;;;;;5054108;28;20171;-80
2023/06/09 01:51:08;;;;;;;11.93;7.97;;;19.80;1.00;;;;;;5054106;28;20619;-81
2023/06/09 01:53:37;;;;;;;12.40;8.00;;;19.70;1.00;;;;;;5054076;28;20180;-81
2023/06/09 01:56:32;;;;;;;10.97;8.23;;;19.70;1.00;;;;;;5036811;28;20561;-85
2023/06/09 01:59:04;;;;;;;14.40;8.67;;;19.70;1.00;;;;;;5053961;28;20203;-80
2023/06/09 02:01:31;;;;;;;13.27;8.43;;;19.70;1.00;;;;;;5074286;28;20172;-77
2023/06/09 02:03:59;;;;;;;15.53;8.20;;;19.70;1.00;;;;;;5075347;28;20304;-78
2023/06/09 02:06:26;;;;;;;14.20;8.33;;;19.70;1.00;;;;;;5048002;28;20176;-82
2023/06/09 02:08:52;;;;;;;9.43;8.17;;;19.60;1.00;;;;;;5066577;28;20623;-79
2023/06/09 02:11:19;;;;;;;10.93;8.20;;;19.60;1.00;;;;;;5062451;28;20163;-81
2023/06/09 02:13:54;;;;;;;14.93;7.80;;;19.50;1.00;;;;;;5058262;28;20165;-81
2023/06/09 02:16:27;;;;;;;14.57;8.07;;;19.60;1.00;;;;;;5057889;28;20164;-82
2023/06/09 02:18:57;;;;;;;12.47;8.23;;;19.50;1.00;;;;;;5057650;28;20204;-82
2023/06/09 02:21:23;;;;;;;10.47;7.93;;;19.50;1.00;;;;;;5057781;28;20181;-85
2023/06/09 02:23:50;;;;;;;10.73;8.10;;;19.50;1.00;;;;;;5058712;28;20216;-81
2023/06/09 02:26:16;;;;;;;10.50;7.37;;;19.50;1.00;;;;;;5058463;28;20172;-87
2023/06/09 02:28:42;;;;;;;11.83;8.20;;;19.40;1.00;;;;;;5058426;28;20507;-82
2023/06/09 02:31:08;;;;;;;10.63;8.07;;;19.30;1.00;;;;;;5057865;28;20183;-82
2023/06/09 02:33:33;;;;;;;13.20;7.93;;;19.40;1.00;;;;;;5072009;28;20277;-76
2023/06/09 02:35:59;;;;;;;12.53;8.47;;;19.40;1.00;;;;;;5076809;28;20167;-76
2023/06/09 02:38:26;;;;;;;10.90;8.23;;;19.30;1.00;;;;;;5078378;28;20188;-78
2023/06/09 02:40:52;;;;;;;13.13;8.83;;;19.30;1.00;;;;;;5067278;28;20171;-82
2023/06/09 02:43:17;;;;;;;10.03;7.80;;;19.30;1.00;;;;;;5049320;28;20209;-83
2023/06/09 02:45:47;;;;;;;13.83;7.80;;;19.30;1.00;;;;;;5062309;28;20180;-84
2023/06/09 02:48:17;;;;;;;10.93;7.87;;;19.30;1.00;;;;;;5057139;28;20200;-82
2023/06/09 02:50:46;;;;;;;12.43;8.10;;;19.30;1.00;;;;;;5039892;28;20247;-81
2023/06/09 02:53:12;;;;;;;12.47;8.17;;;19.20;1.00;;;;;;5057272;28;20158;-85
2023/06/09 02:55:38;;;;;;;12.67;8.23;;;19.20;1.00;;;;;;5072718;28;20310;-84
2023/06/09 02:58:04;;;;;;;10.33;8.13;;;19.10;1.00;;;;;;5056162;28;20599;-81
2023/06/09 03:00:31;;;;;;;11.97;8.50;;;19.20;1.00;;;;;;5039716;28;20693;-85
2023/06/09 03:02:57;;;;;;;11.83;8.50;;;19.10;1.00;;;;;;5056411;28;20553;-80
2023/06/09 03:05:24;;;;;;;14.17;9.00;;;19.10;1.00;;;;;;5056715;28;20175;-82
2023/06/09 03:07:50;;;;;;;14.40;8.30;;;19.10;1.00;;;;;;5057564;28;20207;-84
2023/06/09 03:10:18;;;;;;;12.53;8.50;;;19.00;1.00;;;;;;5056693;28;20172;-81
2023/06/09 03:12:43;;;;;;;12.67;8.30;;;19.00;1.00;;;;;;5056229;28;20199;-83
2023/06/09 03:15:09;;;;;;;16.43;9.13;;;18.90;1.00;;;;;;5056857;28;20205;-80
2023/06/09 03:17:35;;;;;;;11.37;8.93;;;18.90;1.00;;;;;;5056138;28;20197;-80
2023/06/09 03:20:01;;;;;;;13.63;9.13;;;19.00;1.00;;;;;;5056464;28;20518;-82
2023/06/09 03:22:29;;;;;;;11.27;8.07;;;19.00;1.00;;;;;;5057164;28;20554;-81
2023/06/09 03:24:55;;;;;;;10.83;9.10;;;19.00;1.00;;;;;;5056766;28;20204;-81
2023/06/09 03:27:21;;;;;;;13.07;9.03;;;18.90;1.00;;;;;;5056812;28;20235;-78
2023/06/09 03:29:46;;;;;;;10.73;8.30;;;18.80;1.00;;;;;;5056285;28;20184;-79
2023/06/09 03:32:12;;;;;;;11.20;8.20;;;18.90;1.00;;;;;;5056880;28;20660;-82
2023/06/09 03:34:40;;;;;;;13.63;9.03;;;18.90;1.00;;;;;;5056401;28;20181;-80
2023/06/09 03:37:09;;;;;;;13.80;8.97;;;18.80;1.00;;;;;;5056100;28;20174;-80
2023/06/09 03:39:35;;;;;;;13.00;8.97;;;18.90;1.00;;;;;;5056844;28;20227;-77
2023/06/09 03:42:00;;;;;;;11.87;9.20;;;18.90;1.00;;;;;;5061529;28;20176;-77
2023/06/09 03:44:26;;;;;;;12.10;8.90;;;18.70;1.00;;;;;;5057062;28;20268;-82
2023/06/09 03:46:52;;;;;;;11.87;9.03;;;18.70;1.00;;;;;;5038278;28;20179;-79
2023/06/09 03:49:17;;;;;;;14.80;9.03;;;18.60;1.00;;;;;;5056235;28;20193;-78
2023/06/09 03:51:43;;;;;;;12.50;8.83;;;18.60;1.00;;;;;;5056818;28;20177;-81
2023/06/09 03:54:09;;;;;;;14.07;9.30;;;18.60;1.00;;;;;;5056055;28;20630;-79
2023/06/09 03:56:34;;;;;;;14.20;8.73;;;18.50;1.00;;;;;;5056144;28;20172;-83
2023/06/09 03:59:02;;;;;;;10.60;9.33;;;18.50;1.00;;;;;;5057394;28;20201;-79
2023/06/09 04:01:30;;;;;;;12.47;9.57;;;18.50;1.00;;;;;;5042337;28;20593;-81
2023/06/09 04:03:56;;;;;;;14.07;9.30;;;18.40;1.00;;;;;;5058807;28;20216;-78
2023/06/09 04:06:22;;;;;;;12.30;9.33;;;18.40;1.00;;;;;;5057548;28;20178;-79
2023/06/09 04:08:51;;;;;;;14.37;9.77;;;18.30;1.00;;;;;;5056152;28;20232;-83
2023/06/09 04:11:19;;;;;;;17.47;9.30;;;18.30;1.00;;;;;;5056116;28;20160;-80
2023/06/09 04:13:48;;;;;;;12.00;9.43;;;18.40;1.00;;;;;;5055673;28;20495;-79
2023/06/09 04:16:15;;;;;;;14.93;9.80;;;18.40;1.00;;;;;;5057363;28;20221;-81
2023/06/09 04:18:40;;;;;;;13.20;9.33;;;18.40;1.00;;;;;;5071068;28;20650;-76
2023/06/09 04:21:06;;;;;;;13.07;9.17;;;18.50;1.00;;;;;;5067693;28;20186;-77
2023/06/09 04:23:32;;;;;;;11.87;9.30;;;18.50;1.00;;;;;;5059809;28;20195;-82
2023/06/09 04:26:00;;;;;;;13.47;9.30;;;18.50;1.00;;;;;;5054343;28;20315;-84
2023/06/09 04:28:28;;;;;;;13.90;9.57;;;18.40;1.00;;;;;;5054527;28;20178;-85
2023/06/09 04:30:57;;;;;;;15.67;9.77;;;18.40;1.00;;;;;;5055211;28;20155;-78
2023/06/09 04:33:24;;;;;;;16.47;10.00;;;18.50;1.00;;;;;;5055514;28;20268;-81
2023/06/09 04:35:53;;;;;;;16.00;9.73;;;18.50;1.00;;;;;;5057983;28;20175;-79
2023/06/09 04:38:20;;;;;;;11.73;9.20;;;18.50;1.00;;;;;;5057325;28;20192;-79
2023/06/09 04:40:46;;;;;;;11.90;9.93;;;18.50;1.00;;;;;;5058623;28;20167;-84
2023/06/09 04:43:12;;;;;;;15.17;9.60;;;18.50;1.00;;;;;;5058605;28;20192;-82
2023/06/09 04:45:38;;;;;;;14.27;10.63;;;18.50;1.00;;;;;;5057546;28;20253;-78
2023/06/09 04:48:05;;;;;;;15.90;10.43;;;18.40;1.00;;;;;;5056762;28;20167;-84
2023/06/09 04:50:33;;;;;;;13.67;10.00;;;18.40;1.00;;;;;;5056389;28;20158;-78
2023/06/09 04:53:03;;;;;;;13.90;9.73;;;18.50;1.00;;;;;;5063034;28;20155;-79
2023/06/09 04:55:29;;;;;;;15.90;10.30;;;18.50;1.00;;;;;;5064835;28;20188;-81
2023/06/09 04:57:56;;;;;;;14.00;10.93;;;18.50;1.00;;;;;;5066376;28;20584;-80
2023/06/09 05:00:26;;;;;;;14.43;10.33;;;18.50;1.00;;;;;;5064890;28;20261;-77
2023/06/09 05:02:53;;;;;;;15.77;11.10;;;18.50;1.00;;;;;;5062259;28;20225;-83
2023/06/09 05:05:19;;;;;;;15.10;10.93;;;18.50;1.00;;;;;;5056071;28;20537;-84
2023/06/09 05:07:51;;;;;;;17.83;10.10;;;18.60;1.00;;;;;;5056720;28;20674;-85
2023/06/09 05:10:22;;;;;;;16.00;11.13;;;18.70;1.00;;;;;;5055938;28;20250;-82
2023/06/09 05:13:18;;;;;;;13.43;10.87;;;18.70;1.00;;;;;;5056506;28;20162;-84
2023/06/09 05:15:45;;;;;;;13.80;11.63;;;18.90;1.00;;;;;;5063817;28;20146;-79
2023/06/09 05:18:17;;;;;;;17.10;12.60;;;19.00;1.00;;;;;;5065096;28;20176;-79
2023/06/09 05:20:43;;;;;;;16.33;11.93;;;18.90;1.00;;;;;;5056090;28;20263;-83
2023/06/09 05:23:10;;;;;;;16.00;11.73;;;19.00;1.00;;;;;;5037799;28;20249;-81
2023/06/09 05:25:37;;;;;;;13.73;11.83;;;19.00;1.00;;;;;;5055163;28;20163;-82
2023/06/09 05:28:06;;;;;;;14.43;12.03;;;19.10;1.00;;;;;;5057863;28;20155;-82
2023/06/09 05:30:39;;;;;;;15.90;11.90;;;19.00;1.00;;;;;;5059864;28;20557;-85
2023/06/09 05:33:05;;;;;;;15.03;12.77;;;19.00;1.00;;;;;;5057659;28;20166;-82
2023/06/09 05:35:33;;;;;;;19.17;13.10;;;19.00;1.00;;;;;;5054978;28;20166;-77
2023/06/09 05:38:01;;;;;;;16.60;11.90;;;19.10;1.00;;;;;;5041715;28;20229;-83
2023/06/09 05:40:28;;;;;;;15.70;13.17;;;19.10;1.00;;;;;;5057193;28;20162;-84
2023/06/09 05:42:54;;;;;;;21.10;13.27;;;19.10;1.00;;;;;;5055450;28;20170;-84
2023/06/09 05:45:20;;;;;;;15.90;12.77;;;19.20;1.00;;;;;;5054970;28;20575;-87
2023/06/09 05:47:46;;;;;;;15.33;12.43;;;19.30;1.00;;;;;;5036582;28;20176;-84
2023/06/09 05:50:11;;;;;;;22.17;14.23;;;19.30;1.00;;;;;;5055397;28;20183;-81
2023/06/09 05:52:37;;;;;;;15.27;12.53;;;19.40;1.00;;;;;;5053882;28;20168;-83
2023/06/09 05:55:04;;;;;;;17.73;13.13;;;19.60;1.00;;;;;;5035205;28;20226;-81
2023/06/09 05:57:29;;;;;;;15.33;12.53;;;19.60;1.00;;;;;;5036011;28;20189;-84
2023/06/09 05:59:57;;;;;;;15.83;13.03;;;19.50;1.00;;;;;;5053747;28;20566;-79
2023/06/09 06:02:23;;;;;;;17.90;13.43;;;19.50;1.00;;;;;;5055871;28;20712;-81
2023/06/09 06:04:49;;;;;;;17.43;13.37;;;19.50;1.00;;;;;;5037411;28;20770;-86
2023/06/09 06:07:15;;;;;;;19.30;13.43;;;19.50;1.00;;;;;;5056956;28;20160;-84
2023/06/09 06:09:40;;;;;;;18.87;13.50;;;19.70;1.00;;;;;;5057123;28;20221;-83
2023/06/09 06:12:06;;;;;;;15.07;13.47;;;19.90;1.00;;;;;;5054998;28;20157;-83
2023/06/09 06:14:32;;;;;;;19.20;14.37;;;20.00;1.00;;;;;;5058464;28;20183;-79
2023/06/09 06:16:57;;;;;;;16.17;13.83;;;20.00;1.00;;;;;;5055528;28;20215;-86
2023/06/09 06:19:23;;;;;;;19.00;13.60;;;20.10;1.00;;;;;;5056331;28;20176;-86
2023/06/09 06:21:50;;;;;;;16.63;14.37;;;20.30;1.00;;;;;;5037743;28;20280;-88
2023/06/09 06:24:16;;;;;;;17.67;12.83;;;20.50;1.00;;;;;;5057330;28;20246;-81
2023/06/09 06:26:42;;;;;;;16.57;13.23;;;20.80;1.00;;;;;;5040625;28;20169;-78
2023/06/09 06:29:08;;;;;;;15.43;13.83;;;20.80;1.00;;;;;;5053716;28;20201;-82
2023/06/09 06:31:34;;;;;;;14.90;13.33;;;20.80;1.00;;;;;;5054427;28;20248;-81
2023/06/09 06:34:01;;;;;;;18.00;13.53;;;20.80;1.00;;;;;;5053206;28;20149;-81
2023/06/09 06:36:27;;;;;;;17.10;14.13;;;20.80;1.00;;;;;;5054951;28;20191;-80
2023/06/09 06:38:52;;;;;;;19.20;14.27;;;20.60;1.00;;;;;;5058675;28;20578;-81
2023/06/09 06:41:18;;;;;;;17.73;13.03;;;20.60;1.00;;;;;;5069202;28;20180;-80
2023/06/09 06:43:44;;;;;;;19.27;14.37;;;20.60;1.00;;;;;;5071351;28;20201;-84
2023/06/09 06:46:15;;;;;;;19.50;14.20;;;20.60;1.00;;;;;;5067232;28;20241;-80
2023/06/09 06:48:41;;;;;;;14.90;13.30;;;20.80;1.00;;;;;;5064335;28;20170;-85
2023/06/09 06:51:07;;;;;;;14.50;12.97;;;20.90;1.00;;;;;;5040217;28;20261;-81
2023/06/09 06:53:35;;;;;;;15.47;12.67;;;20.80;1.00;;;;;;5058703;28;20566;-78
2023/06/09 06:56:03;;;;;;;15.87;13.60;;;20.90;1.00;;;;;;5040029;28;20192;-84
2023/06/09 06:58:28;;;;;;;18.00;13.27;;;21.00;1.00;;;;;;5040156;28;20545;-80
2023/06/09 07:00:57;;;;;;;15.40;13.03;;;21.10;1.00;;;;;;5039877;28;20167;-84
2023/06/09 07:03:27;;;;;;;23.70;13.40;;;21.20;1.00;;;;;;5042263;28;20532;-82
2023/06/09 07:05:53;;;;;;;19.33;12.53;;;21.40;1.00;;;;;;5056716;28;20506;-79
2023/06/09 07:08:19;;;;;;;15.90;12.60;;;21.50;1.00;;;;;;5056234;28;20167;-79
2023/06/09 07:10:45;;;;;;;17.27;13.10;;;21.60;1.00;;;;;;5056850;28;20209;-80
2023/06/09 07:13:11;;;;;;;14.73;12.77;;;21.60;1.00;;;;;;5039411;28;20654;-80
2023/06/09 07:15:38;;;;;;;14.23;12.70;;;21.70;1.00;;;;;;5058954;28;20221;-79
2023/06/09 07:18:07;;;;;;;14.90;11.53;;;21.60;1.00;;;;;;5062163;28;20192;-84
2023/06/09 07:20:33;;;;;;;13.77;10.60;;;21.60;1.00;;;;;;5059102;28;20171;-80
2023/06/09 07:22:59;;;;;;;15.33;11.20;;;21.70;1.00;;;;;;5057622;28;20199;-81
2023/06/09 07:25:25;;;;;;;15.67;12.03;;;21.70;1.00;;;;;;5057218;28;20638;-78
2023/06/09 07:27:54;;;;;;;17.53;12.13;;;21.80;1.00;;;;;;5057434;28;20215;-80
2023/06/09 07:30:26;;;;;;;14.57;12.33;;;21.90;1.00;;;;;;5066577;28;20254;-78
2023/06/09 07:32:51;;;;;;;12.87;11.67;;;22.10;1.00;;;;;;5070291;28;20194;-78
2023/06/09 07:35:19;;;;;;;16.57;11.77;;;22.10;1.00;;;;;;5056831;28;20170;-80
2023/06/09 07:37:46;;;;;;;15.10;11.60;;;22.10;1.00;;;;;;5073295;28;20316;-83
2023/06/09 07:40:18;;;;;;;15.77;12.17;;;22.30;1.00;;;;;;5068590;28;20206;-84
2023/06/09 07:42:44;;;;;;;17.33;12.00;;;22.40;1.00;;;;;;5051919;28;20207;-86
2023/06/09 07:45:10;;;;;;;13.70;10.00;;;22.50;1.00;;;;;;5059061;28;20187;-84
2023/06/09 07:47:36;;;;;;;10.70;8.73;;;22.60;1.00;;;;;;5059409;28;20199;-84
2023/06/09 07:50:05;;;;;;;12.90;9.50;;;22.70;1.00;;;;;;5057273;28;20168;-78
2023/06/09 07:52:32;;;;;;;12.67;10.97;;;22.80;1.00;;;;;;5070305;28;20223;-79
2023/06/09 07:54:57;;;;;;;13.77;9.97;;;23.00;1.00;;;;;;5053001;28;20184;-79
2023/06/09 07:57:23;;;;;;;10.27;9.03;;;23.10;1.00;;;;;;5058991;28;20205;-81
2023/06/09 07:59:50;;;;;;;11.03;8.13;;;23.20;1.00;;;;;;5056465;28;20192;-78
2023/06/09 08:02:16;;;;;;;12.60;9.60;;;23.40;1.00;;;;;;5056310;28;20169;-82
2023/06/09 08:04:43;;;;;;;11.87;8.40;;;23.20;1.00;;;;;;5055279;28;20250;-79
2023/06/09 08:07:09;;;;;;;10.23;8.87;;;23.20;1.00;;;;;;5038497;28;20246;-81
2023/06/09 08:09:35;;;;;;;9.47;7.97;;;23.30;1.00;;;;;;5055625;28;20180;-80
2023/06/09 08:12:01;;;;;;;8.77;7.87;;;23.40;1.00;;;;;;5055825;28;20264;-80
2023/06/09 08:14:27;;;;;;;11.20;7.77;;;23.50;1.00;;;;;;5055528;28;20210;-80
2023/06/09 08:16:53;;;;;;;9.77;8.00;;;23.60;1.00;;;;;;5054864;28;20173;-79
2023/06/09 08:19:18;;;;;;;8.83;7.70;;;23.70;1.00;;;;;;5054608;28;20591;-79
2023/06/09 08:21:45;;;;;;;8.87;7.40;;;23.70;1.00;;;;;;5055072;28;20747;-78
2023/06/09 08:24:11;;;;;;;12.17;8.50;;;23.80;1.00;;;;;;5056074;28;20205;-85
2023/06/09 08:26:37;;;;;;;10.50;7.53;;;23.80;1.00;;;;;;5055541;28;20169;-82
2023/06/09 08:29:04;;;;;;;10.67;7.60;;;23.90;99.90;;;;;;5054442;28;20201;-79
2023/06/09 08:31:31;;;;;;;8.50;7.00;;;23.80;99.90;;;;;;5054418;28;20227;-79
2023/06/09 08:33:57;;;;;;;11.50;7.80;;;24.00;99.90;;;;;;5052964;28;20177;-81
2023/06/09 08:36:23;;;;;;;12.27;7.93;;;24.30;99.90;;;;;;5054178;28;20172;-80
2023/06/09 08:38:49;;;;;;;8.47;7.13;;;24.50;99.90;;;;;;5054876;28;20539;-79
2023/06/09 08:41:16;;;;;;;12.43;7.27;;;24.50;99.90;;;;;;5055462;28;20259;-80
2023/06/09 08:43:42;;;;;;;10.17;7.37;;;24.60;99.90;;;;;;5037500;28;20209;-81
2023/06/09 08:46:11;;;;;;;9.90;7.80;;;24.60;99.90;;;;;;5053865;28;20540;-79
2023/06/09 08:48:42;;;;;;;10.27;8.50;;;24.70;99.90;;;;;;5036626;28;20187;-79
2023/06/09 08:51:08;;;;;;;12.90;8.63;;;24.70;99.90;;;;;;5053526;28;20169;-80
2023/06/09 08:53:36;;;;;;;10.70;7.60;;;24.70;99.90;;;;;;5036008;28;20261;-81
2023/06/09 08:56:02;;;;;;;11.17;7.07;;;24.50;99.90;;;;;;5054392;28;20694;-83
2023/06/09 08:58:28;;;;;;;8.70;7.17;;;24.40;99.90;;;;;;5055945;28;20196;-81
2023/06/09 09:00:54;;;;;;;8.27;7.40;;;24.60;99.90;;;;;;5038649;28;20524;-82
2023/06/09 09:03:20;;;;;;;14.33;7.60;;;24.70;99.90;;;;;;5055082;28;20660;-86
2023/06/09 09:05:49;;;;;;;12.43;8.73;;;24.80;99.90;;;;;;5055104;28;20164;-86
2023/06/09 09:08:14;;;;;;;11.30;8.43;;;24.90;99.90;;;;;;5040463;28;20251;-85
2023/06/09 09:10:41;;;;;;;11.37;8.10;;;24.90;99.90;;;;;;5066576;28;20176;-82
2023/06/09 09:13:10;;;;;;;10.23;7.60;;;25.00;99.90;;;;;;5057907;28;20168;-87
2023/06/09 09:15:37;;;;;;;8.17;7.20;;;25.10;99.90;;;;;;5055145;28;20176;-85
2023/06/09 09:18:09;;;;;;;7.90;6.60;;;25.20;99.90;;;;;;5055455;28;20241;-85
2023/06/09 09:20:35;;;;;;;9.83;6.70;;;25.40;99.90;;;;;;5053109;28;20172;-86
2023/06/09 09:23:03;;;;;;;8.93;6.43;;;25.40;95.70;;;;;;5072042;28;20180;-88
2023/06/09 09:25:30;;;;;;;7.23;6.07;;;25.60;1.00;;;;;;5042650;28;20196;-87
2023/06/09 09:28:09;;;;;;;10.17;6.57;;;25.40;1.00;;;;;;5062573;28;20179;-88
2023/06/09 09:30:50;;;;;;;7.73;6.37;;;25.40;99.90;;;;;;5066418;28;20172;-86
2023/06/09 09:33:27;;;;;;;11.37;6.57;;;25.60;1.00;;;;;;5058798;28;20176;-86
2023/06/09 09:35:59;;;;;;;10.20;6.40;;;25.80;1.00;;;;;;5058474;28;20172;-87
2023/06/09 09:38:27;;;;;;;8.03;5.80;;;25.80;1.00;;;;;;5058623;28;20161;-84
2023/06/09 09:41:00;;;;;;;7.60;5.20;;;25.70;99.90;;;;;;5057886;28;20531;-86
2023/06/09 09:43:27;;;;;;;8.17;5.40;;;25.90;33.10;;;;;;5040590;28;20204;-87
2023/06/09 09:45:55;;;;;;;8.50;5.57;;;26.30;1.00;;;;;;5058368;28;20167;-89
2023/06/09 09:48:23;;;;;;;6.77;5.13;;;26.70;99.90;;;;;;5041653;28;20181;-89
2023/06/09 09:50:55;;;;;;;7.73;5.47;;;27.00;99.90;;;;;;5061620;28;20172;-86
2023/06/09 09:53:23;;;;;;;12.83;6.53;;;26.80;35.90;;;;;;5058720;28;20157;-86
2023/06/09 09:55:51;;;;;;;8.07;5.20;;;26.80;1.00;;;;;;5058582;28;20172;-89
2023/06/09 09:58:18;;;;;;;6.55;5.45;;;27.00;1.00;;;;;;5062503;28;20167;-88
2023/06/09 10:00:46;;;;;;;6.93;5.47;;;27.30;99.90;;;;;;5041351;28;20161;-88
2023/06/09 10:03:17;;;;;;;6.50;5.27;;;27.00;1.00;;;;;;5060563;28;20219;-88
2023/06/09 10:06:06;;;;;;;6.13;5.53;;;27.00;1.00;;;;;;5061806;28;20200;-88
2023/06/09 10:08:32;;;;;;;9.23;5.63;;;26.70;99.90;;;;;;5059446;28;20204;-89
2023/06/09 10:11:00;;;;;;;5.63;5.07;;;26.60;1.00;;;;;;5052783;28;20161;-88
2023/06/09 10:13:27;;;;;;;8.07;5.30;;;26.60;99.90;;;;;;5066874;28;20192;-88
2023/06/09 10:15:54;;;;;;;5.57;4.97;;;26.50;1.00;;;;;;5057587;28;20186;-89
2023/06/09 10:18:21;;;;;;;6.00;4.77;;;26.30;1.00;;;;;;5057722;28;20649;-88
2023/06/09 10:20:48;;;;;;;5.83;5.23;;;26.50;1.00;;;;;;5058130;28;20172;-88
2023/06/09 10:23:15;;;;;;;4.80;4.30;;;26.60;1.00;;;;;;5058143;28;20298;-89
2023/06/09 10:25:41;;;;;;;6.47;5.03;;;26.70;89.60;;;;;;5060683;28;20154;-84
2023/06/09 10:28:12;;;;;;;7.27;4.93;;;26.60;99.90;;;;;;5068910;28;20236;-84
2023/06/09 10:30:40;;;;;;;8.43;5.20;;;26.60;99.90;;;;;;5061500;28;20181;-86
2023/06/09 10:33:18;;;;;;;11.73;5.55;;;27.00;1.00;;;;;;5060346;28;20178;-85
2023/06/09 10:35:47;;;;;;;6.20;4.83;;;27.20;99.90;;;;;;5060354;28;20640;-85
2023/06/09 10:38:25;;;;;;;7.10;4.88;;;27.10;1.00;;;;;;5061696;28;20199;-86
2023/06/09 10:41:06;;;;;;;5.53;4.17;;;27.00;1.00;;;;;;5059494;28;20255;-87
2023/06/09 10:43:40;;;;;;;7.23;4.67;;;26.90;1.00;;;;;;5059545;28;20260;-88
2023/06/09 10:46:07;;;;;;;7.17;4.33;;;27.00;1.00;;;;;;5060592;28;20205;-85
2023/06/09 10:48:51;;;;;;;6.33;4.20;;;27.20;7.10;;;;;;5060999;28;20219;-83
2023/06/09 10:51:29;;;;;;;5.07;4.50;;;27.20;96.90;;;;;;5061341;28;20179;-85
2023/06/09 10:54:10;;;;;;;5.27;4.03;;;27.20;1.00;;;;;;5062188;28;20157;-88
2023/06/09 10:56:39;;;;;;;8.05;4.25;;;27.30;99.90;;;;;;5061519;28;20227;-89
2023/06/09 10:59:33;;;;;;;6.93;4.50;;;27.30;99.90;;;;;;5062942;28;20195;-88
2023/06/09 11:02:04;;;;;;;9.80;4.70;;;27.40;99.90;;;;;;5033313;28;20221;-87
2023/06/09 11:04:49;;;;;;;5.32;4.10;;;27.70;99.90;;;;;;5065721;28;20208;-87
2023/06/09 11:07:20;;;;;;;10.15;4.50;;;27.80;1.00;;;;;;5063274;28;20167;-89
2023/06/09 11:09:49;;;;;;;6.80;4.20;;;27.70;1.00;;;;;;5062142;28;20218;-86
2023/06/09 11:12:25;;;;;;;8.07;4.30;;;27.80;1.00;;;;;;5061557;28;20173;-87
2023/06/09 11:15:01;;;;;;;5.78;4.30;;;27.80;99.90;;;;;;5062262;28;20176;-89
2023/06/09 11:17:39;;;;;;;6.72;4.68;;;28.00;99.90;;;;;;5060997;28;20545;-87
2023/06/09 11:20:14;;;;;;;5.28;4.10;;;28.20;99.90;;;;;;5045332;28;20181;-87
2023/06/09 11:22:49;;;;;;;8.30;4.43;;;27.80;99.90;;;;;;5061550;28;20190;-88
2023/06/09 11:25:19;;;;;;;6.80;4.72;;;27.80;99.90;;;;;;5061299;28;20349;-88
2023/06/09 11:28:06;;;;;;;5.75;4.40;;;27.70;99.90;;;;;;5063194;28;20307;-82
2023/06/09 11:30:33;;;;;;;6.93;4.10;;;27.70;99.90;;;;;;5065377;28;20192;-81
2023/06/09 11:33:01;;;;;;;5.90;4.13;;;27.70;99.90;;;;;;5079313;28;20161;-79
2023/06/09 11:35:44;;;;;;;7.13;4.53;;;27.90;99.90;;;;;;5077883;28;20157;-88
2023/06/09 11:38:29;;;;;;;7.40;4.90;;;28.00;99.90;;;;;;5073731;28;20154;-80
2023/06/09 11:40:56;;;;;;;6.50;4.25;;;27.90;1.00;;;;;;5079531;28;20149;-80
2023/06/09 11:43:24;;;;;;;7.55;4.65;;;28.00;1.00;;;;;;5077664;28;20205;-80
2023/06/09 11:46:00;;;;;;;6.95;4.80;;;28.10;1.00;;;;;;5061675;28;20184;-83
2023/06/09 11:48:32;;;;;;;13.18;5.45;;;28.20;1.00;;;;;;5072490;28;20161;-88
2023/06/09 11:51:00;;;;;;;10.82;4.93;;;28.40;1.00;;;;;;5063531;28;20177;-87
2023/06/09 11:53:26;;;;;;;5.95;4.38;;;28.30;99.90;;;;;;5061352;28;20185;-87
2023/06/09 11:56:00;;;;;;;5.88;4.35;;;28.30;1.00;;;;;;5061096;28;20685;-89
2023/06/09 11:58:27;;;;;;;6.28;4.75;;;28.20;99.90;;;;;;5059825;28;20235;-82
2023/06/09 12:00:53;;;;;;;6.95;4.95;;;28.10;1.00;;;;;;5053867;28;20173;-88
2023/06/09 12:03:19;;;;;;;6.75;5.03;;;28.30;1.00;;;;;;5051914;28;20200;-85
2023/06/09 12:05:49;;;;;;;9.30;4.65;;;28.40;1.00;;;;;;5067737;28;20160;-80
2023/06/09 12:08:15;;;;;;;5.07;4.50;;;28.60;1.00;;;;;;5058591;28;20168;-83
2023/06/09 12:10:41;;;;;;;6.68;4.88;;;28.70;99.90;;;;;;5076772;28;20247;-83
2023/06/09 12:13:07;;;;;;;5.13;4.40;;;28.70;99.90;;;;;;5065874;28;20169;-84
2023/06/09 12:15:33;;;;;;;5.63;4.07;;;28.70;99.90;;;;;;5062545;28;20255;-82
2023/06/09 12:18:04;;;;;;;5.80;4.60;;;28.40;99.90;;;;;;5072644;28;20183;-86
2023/06/09 12:20:46;;;;;;;7.88;4.85;;;28.40;99.90;;;;;;5060088;28;20195;-84
2023/06/09 12:23:27;;;;;;;7.30;3.95;;;28.40;99.90;;;;;;5054558;28;20704;-86
2023/06/09 12:25:54;;;;;;;6.97;4.90;;;28.40;99.90;;;;;;5054046;28;20268;-86
2023/06/09 12:28:29;;;;;;;7.78;4.50;;;28.50;99.90;;;;;;5053209;28;20175;-85
2023/06/09 12:31:06;;;;;;;6.53;4.93;;;28.70;99.90;;;;;;5050285;28;20698;-86
2023/06/09 12:33:31;;;;;;;6.95;4.28;;;28.90;99.90;;;;;;5058379;28;20180;-85
2023/06/09 12:36:16;;;;;;;7.60;4.55;;;28.90;99.90;;;;;;5062332;28;20186;-86
2023/06/09 12:38:45;;;;;;;6.65;4.40;;;28.90;54.30;;;;;;5063784;28;20637;-86
2023/06/09 12:41:17;;;;;;;7.60;5.18;;;28.80;1.00;;;;;;5059907;28;20261;-86
2023/06/09 12:43:59;;;;;;;7.22;4.38;;;28.80;90.00;;;;;;5056499;28;20205;-88
2023/06/09 12:46:36;;;;;;;4.68;4.05;;;29.10;17.80;;;;;;5055508;28;20161;-87
2023/06/09 12:49:03;;;;;;;5.70;4.18;;;29.00;1.00;;;;;;5056726;28;20226;-87
2023/06/09 12:51:31;;;;;;;8.10;4.82;;;28.70;1.00;;;;;;5057427;28;20161;-88
2023/06/09 12:53:57;;;;;;;5.57;4.25;;;28.70;1.00;;;;;;5058900;28;20165;-86
2023/06/09 12:56:23;;;;;;;5.20;4.07;;;28.90;1.00;;;;;;5067693;28;20239;-89